createdAt,value
2018-12-30T00:01:01.144Z,1.50
2018-12-30T00:03:42.169Z,1.50
2018-12-30T00:06:22.984Z,1.50
2018-12-30T00:09:04.448Z,1.50
2018-12-30T00:11:45.431Z,1.50
2018-12-30T00:14:25.981Z,1.50
2018-12-30T00:17:06.576Z,1.50
2018-12-30T00:19:47.898Z,1.50
2018-12-30T00:22:28.834Z,1.50
2018-12-30T00:25:09.412Z,1.50
2018-12-30T00:27:50.073Z,1.50
2018-12-30T00:30:30.904Z,1.50
2018-12-30T00:33:11.765Z,1.50
2018-12-30T00:35:52.800Z,1.50
2018-12-30T00:38:33.482Z,1.50
2018-12-30T00:41:14.303Z,1.50
2018-12-30T00:43:54.942Z,1.50
2018-12-30T00:46:36.264Z,1.60
2018-12-30T00:49:17.184Z,1.60
2018-12-30T00:51:57.955Z,1.60
2018-12-30T00:54:38.864Z,1.60
2018-12-30T00:57:19.868Z,1.60
2018-12-30T01:00:00.572Z,1.60
2018-12-30T01:02:41.309Z,1.70
2018-12-30T01:05:28.515Z,1.70
2018-12-30T01:08:09.392Z,1.80
2018-12-30T01:10:50.589Z,1.80
2018-12-30T01:13:31.044Z,1.80
2018-12-30T01:16:12.005Z,1.90
2018-12-30T01:18:53.025Z,1.90
2018-12-30T01:21:33.832Z,1.90
2018-12-30T01:24:17.285Z,1.90
2018-12-30T01:26:57.618Z,1.90
2018-12-30T01:29:38.136Z,1.90
2018-12-30T01:32:18.983Z,1.90
2018-12-30T01:35:00.929Z,1.90
2018-12-30T01:37:41.899Z,1.90
2018-12-30T01:40:22.644Z,1.90
2018-12-30T01:43:03.616Z,1.80
2018-12-30T01:45:44.233Z,1.80
2018-12-30T01:48:25.323Z,1.90
2018-12-30T01:51:06.255Z,1.80
2018-12-30T01:53:47.141Z,1.80
2018-12-30T01:56:28.189Z,1.80
2018-12-30T01:59:09.082Z,1.80
2018-12-30T02:01:49.568Z,1.80
2018-12-30T02:04:30.198Z,1.80
2018-12-30T02:07:11.020Z,1.90
2018-12-30T02:09:51.798Z,1.90
2018-12-30T02:12:32.721Z,1.80
2018-12-30T02:15:13.400Z,1.80
2018-12-30T02:17:54.313Z,1.90
2018-12-30T02:20:35.060Z,1.90
2018-12-30T02:23:15.844Z,1.90
2018-12-30T02:25:56.736Z,1.90
2018-12-30T02:28:37.835Z,1.90
2018-12-30T02:31:18.801Z,2.00
2018-12-30T02:34:00.316Z,2.00
2018-12-30T02:36:41.165Z,2.00
2018-12-30T02:39:21.915Z,2.00
2018-12-30T02:42:02.669Z,2.00
2018-12-30T02:44:43.413Z,2.00
2018-12-30T02:47:24.492Z,2.10
2018-12-30T02:50:05.508Z,2.10
2018-12-30T02:52:49.246Z,2.10
2018-12-30T02:55:29.964Z,2.20
2018-12-30T02:58:10.528Z,2.10
2018-12-30T03:00:51.381Z,2.10
2018-12-30T03:03:32.384Z,2.10
2018-12-30T03:06:13.197Z,2.10
2018-12-30T03:08:54.043Z,2.10
2018-12-30T03:11:35.013Z,2.10
2018-12-30T03:14:15.742Z,2.20
2018-12-30T03:16:56.461Z,2.20
2018-12-30T03:19:37.248Z,2.20
2018-12-30T03:22:18.124Z,2.10
2018-12-30T03:24:58.759Z,2.10
2018-12-30T03:27:39.576Z,2.10
2018-12-30T03:30:20.407Z,2.10
2018-12-30T03:33:01.173Z,2.10
2018-12-30T03:35:41.993Z,2.00
2018-12-30T03:38:25.670Z,2.00
2018-12-30T03:41:06.190Z,1.90
2018-12-30T03:43:46.928Z,2.00
2018-12-30T03:46:27.973Z,1.90
2018-12-30T03:49:08.867Z,1.90
2018-12-30T03:51:37.896Z,1.90
2018-12-30T03:54:26.199Z,1.90
2018-12-30T03:57:07.371Z,2.00
2018-12-30T03:59:48.273Z,2.00
2018-12-30T04:02:29.189Z,2.00
2018-12-30T04:05:10.194Z,1.90
2018-12-30T04:10:44.020Z,1.90
2018-12-30T04:13:25.688Z,1.90
2018-12-30T04:16:06.450Z,1.90
2018-12-30T04:18:47.233Z,1.90
2018-12-30T04:21:28.092Z,2.00
2018-12-30T04:24:09.907Z,2.00
2018-12-30T04:26:50.488Z,2.00
2018-12-30T04:29:31.230Z,1.90
2018-12-30T04:32:12.157Z,1.90
2018-12-30T04:34:53.036Z,1.80
2018-12-30T04:37:34.130Z,1.80
2018-12-30T04:40:14.516Z,1.80
2018-12-30T04:42:55.511Z,1.80
2018-12-30T04:45:36.199Z,1.80
2018-12-30T04:48:16.842Z,1.70
2018-12-30T04:50:57.264Z,1.70
2018-12-30T04:53:37.853Z,1.70
2018-12-30T04:56:18.709Z,1.60
2018-12-30T04:58:59.716Z,1.60
2018-12-30T05:01:40.118Z,1.60
2018-12-30T05:04:20.727Z,1.50
2018-12-30T05:07:01.711Z,1.50
2018-12-30T05:09:42.437Z,1.40
2018-12-30T05:12:23.350Z,1.40
2018-12-30T05:15:03.751Z,1.30
2018-12-30T05:17:44.180Z,1.20
2018-12-30T05:20:30.864Z,1.20
2018-12-30T05:23:13.025Z,1.20
2018-12-30T05:25:54.122Z,1.10
2018-12-30T05:28:34.657Z,1.10
2018-12-30T05:31:15.799Z,1.10
2018-12-30T05:33:56.415Z,1.10
2018-12-30T05:36:37.189Z,1.10
2018-12-30T05:39:17.881Z,1.10
2018-12-30T05:41:59.167Z,1.10
2018-12-30T05:44:40.245Z,1.10
2018-12-30T05:47:21.096Z,1.10
2018-12-30T05:50:01.952Z,1.20
2018-12-30T05:52:43.031Z,1.10
2018-12-30T05:55:23.845Z,1.10
2018-12-30T05:58:04.544Z,1.10
2018-12-30T06:00:45.904Z,1.20
2018-12-30T06:03:26.400Z,1.20
2018-12-30T06:06:07.002Z,1.20
2018-12-30T06:08:47.972Z,1.20
2018-12-30T06:11:29.130Z,1.20
2018-12-30T06:16:49.278Z,1.30
2018-12-30T06:19:29.976Z,1.40
2018-12-30T06:22:11.048Z,1.40
2018-12-30T06:24:51.648Z,1.50
2018-12-30T06:27:32.044Z,1.50
2018-12-30T06:30:13.083Z,1.40
2018-12-30T06:32:53.789Z,1.40
2018-12-30T06:35:34.607Z,1.50
2018-12-30T06:40:51.337Z,1.40
2018-12-30T06:43:39.524Z,1.40
2018-12-30T06:46:20.476Z,1.50
2018-12-30T06:49:01.433Z,1.50
2018-12-30T06:51:42.170Z,1.40
2018-12-30T06:54:23.253Z,1.40
2018-12-30T06:57:03.938Z,1.40
2018-12-30T06:59:44.736Z,1.40
2018-12-30T07:02:25.464Z,1.30
2018-12-30T07:05:06.486Z,1.40
2018-12-30T07:07:47.253Z,1.40
2018-12-30T07:10:28.338Z,1.40
2018-12-30T07:13:09.037Z,1.40
2018-12-30T07:15:50.022Z,1.40
2018-12-30T07:18:30.852Z,1.40
2018-12-30T07:21:11.783Z,1.40
2018-12-30T07:23:52.656Z,1.40
2018-12-30T07:26:33.424Z,1.40
2018-12-30T07:29:14.052Z,1.40
2018-12-30T07:31:55.105Z,1.50
2018-12-30T07:34:36.054Z,1.50
2018-12-30T07:37:17.259Z,1.60
2018-12-30T07:39:57.872Z,1.60
2018-12-30T07:42:38.512Z,1.60
2018-12-30T07:45:19.439Z,1.60
2018-12-30T07:48:00.141Z,1.70
2018-12-30T07:50:43.916Z,1.70
2018-12-30T07:53:24.613Z,1.70
2018-12-30T07:56:05.308Z,1.70
2018-12-30T07:58:45.702Z,1.70
2018-12-30T08:01:26.081Z,1.80
2018-12-30T08:04:06.778Z,1.90
2018-12-30T08:06:47.477Z,1.90
2018-12-30T08:09:28.342Z,2.00
2018-12-30T08:12:09.204Z,2.00
2018-12-30T08:14:50.040Z,2.20
2018-12-30T08:17:30.657Z,2.30
2018-12-30T08:20:11.220Z,2.40
2018-12-30T08:22:52.101Z,2.40
2018-12-30T08:25:32.917Z,2.50
2018-12-30T08:28:13.828Z,2.60
2018-12-30T08:30:54.772Z,2.60
2018-12-30T08:33:35.507Z,2.60
2018-12-30T08:36:16.148Z,2.70
2018-12-30T08:38:56.793Z,2.80
2018-12-30T08:41:41.101Z,2.90
2018-12-30T08:44:21.577Z,2.90
2018-12-30T08:47:02.157Z,3.00
2018-12-30T08:49:42.682Z,3.00
2018-12-30T08:52:23.956Z,3.10
2018-12-30T08:55:05.000Z,3.10
2018-12-30T08:57:46.053Z,3.20
2018-12-30T09:00:27.100Z,3.30
2018-12-30T09:03:07.918Z,3.30
2018-12-30T09:05:48.870Z,3.40
2018-12-30T09:08:29.288Z,3.40
2018-12-30T09:11:10.620Z,3.40
2018-12-30T09:13:51.464Z,3.50
2018-12-30T09:16:32.737Z,3.50
2018-12-30T09:19:13.388Z,3.50
2018-12-30T09:21:54.477Z,3.50
2018-12-30T09:24:35.261Z,3.50
2018-12-30T09:27:16.182Z,3.50
2018-12-30T09:29:56.763Z,3.50
2018-12-30T09:32:37.726Z,3.60
2018-12-30T09:35:18.812Z,3.60
2018-12-30T09:37:59.697Z,3.60
2018-12-30T09:40:40.836Z,3.70
2018-12-30T09:43:21.639Z,3.70
2018-12-30T09:46:02.048Z,3.70
2018-12-30T09:48:42.945Z,3.80
2018-12-30T09:51:24.228Z,3.80
2018-12-30T09:54:04.847Z,3.90
2018-12-30T09:56:45.286Z,3.90
2018-12-30T09:59:27.280Z,3.90
2018-12-30T10:02:08.122Z,3.90
2018-12-30T10:04:48.998Z,4.00
2018-12-30T10:07:29.829Z,4.00
2018-12-30T10:10:10.526Z,4.00
2018-12-30T10:12:51.362Z,4.00
2018-12-30T10:15:32.380Z,4.00
2018-12-30T10:18:13.308Z,4.00
2018-12-30T10:20:54.377Z,4.00
2018-12-30T10:23:35.244Z,4.00
2018-12-30T10:26:15.769Z,4.00
2018-12-30T10:28:57.085Z,4.00
2018-12-30T10:31:37.907Z,4.00
2018-12-30T10:34:18.685Z,4.00
2018-12-30T10:36:59.830Z,4.10
2018-12-30T10:39:40.467Z,4.20
2018-12-30T10:42:21.404Z,4.20
2018-12-30T10:45:02.352Z,4.30
2018-12-30T10:47:43.165Z,4.30
2018-12-30T10:50:23.898Z,4.40
2018-12-30T10:53:04.860Z,4.40
2018-12-30T10:55:45.892Z,4.40
2018-12-30T10:58:26.452Z,4.40
2018-12-30T11:01:07.238Z,4.40
2018-12-30T11:03:47.988Z,4.40
2018-12-30T11:06:28.609Z,4.50
2018-12-30T11:09:09.408Z,4.50
2018-12-30T11:11:50.560Z,4.50
2018-12-30T11:14:31.205Z,4.50
2018-12-30T11:17:12.291Z,4.50
2018-12-30T11:19:53.118Z,4.50
2018-12-30T11:22:33.669Z,4.50
2018-12-30T11:25:14.276Z,4.50
2018-12-30T11:27:55.169Z,4.50
2018-12-30T11:30:35.824Z,4.60
2018-12-30T11:33:16.357Z,4.60
2018-12-30T11:35:57.290Z,4.70
2018-12-30T11:38:37.749Z,4.80
2018-12-30T11:41:18.384Z,4.80
2018-12-30T11:43:58.952Z,4.90
2018-12-30T11:46:39.621Z,4.90
2018-12-30T11:49:20.452Z,5.00
2018-12-30T11:52:01.487Z,5.00
2018-12-30T11:54:42.337Z,5.10
2018-12-30T11:57:23.113Z,5.10
2018-12-30T12:00:03.841Z,5.20
2018-12-30T12:02:44.924Z,5.20
2018-12-30T12:05:25.681Z,5.20
2018-12-30T12:08:06.330Z,5.10
2018-12-30T12:10:47.025Z,5.10
2018-12-30T12:13:28.093Z,5.10
2018-12-30T12:16:08.992Z,5.10
2018-12-30T12:18:49.936Z,5.10
2018-12-30T12:21:30.729Z,5.10
2018-12-30T12:24:13.730Z,5.20
2018-12-30T12:26:54.885Z,5.20
2018-12-30T12:29:35.992Z,5.20
2018-12-30T12:32:20.015Z,5.20
2018-12-30T12:35:04.639Z,5.20
2018-12-30T12:37:45.077Z,5.20
2018-12-30T12:40:26.036Z,5.20
2018-12-30T12:48:25.017Z,5.40
2018-12-30T12:51:06.064Z,5.30
2018-12-30T12:53:46.740Z,5.20
2018-12-30T12:56:27.445Z,5.20
2018-12-30T12:59:08.226Z,5.30
2018-12-30T13:01:48.933Z,5.30
2018-12-30T13:04:29.766Z,5.30
2018-12-30T13:07:10.832Z,5.30
2018-12-30T13:09:51.814Z,5.30
2018-12-30T13:12:32.856Z,5.30
2018-12-30T13:15:13.676Z,5.30
2018-12-30T13:17:54.153Z,5.20
2018-12-30T13:20:34.860Z,5.20
2018-12-30T13:23:15.632Z,5.20
2018-12-30T13:25:56.461Z,5.20
2018-12-30T13:28:37.216Z,5.20
2018-12-30T13:31:18.209Z,5.10
2018-12-30T13:33:58.946Z,5.10
2018-12-30T13:36:40.109Z,5.10
2018-12-30T13:39:21.248Z,5.00
2018-12-30T13:42:02.203Z,5.00
2018-12-30T13:44:43.002Z,5.00
2018-12-30T13:47:23.845Z,4.90
2018-12-30T13:50:05.802Z,4.90
2018-12-30T13:52:46.378Z,4.90
2018-12-30T13:55:27.069Z,5.00
2018-12-30T13:58:10.461Z,5.00
2018-12-30T14:00:50.748Z,5.00
2018-12-30T14:03:31.163Z,5.00
2018-12-30T14:06:12.048Z,5.00
2018-12-30T14:08:53.024Z,5.00
2018-12-30T14:11:33.760Z,4.90
2018-12-30T14:14:14.664Z,4.90
2018-12-30T14:16:55.493Z,4.90
2018-12-30T14:19:36.100Z,4.80
2018-12-30T14:22:19.962Z,4.90
2018-12-30T14:25:00.340Z,4.80
2018-12-30T14:27:41.110Z,4.80
2018-12-30T14:30:21.841Z,4.80
2018-12-30T14:33:02.925Z,4.80
2018-12-30T14:35:43.765Z,4.80
2018-12-30T14:38:24.504Z,4.80
2018-12-30T14:41:05.422Z,4.70
2018-12-30T14:43:46.191Z,4.70
2018-12-30T14:46:33.805Z,4.70
2018-12-30T14:49:10.016Z,4.70
2018-12-30T14:51:50.761Z,4.60
2018-12-30T14:54:31.578Z,4.60
2018-12-30T14:57:12.546Z,4.60
2018-12-30T14:59:53.297Z,4.60
2018-12-30T15:02:33.962Z,4.60
2018-12-30T15:05:14.693Z,4.60
2018-12-30T15:07:55.092Z,4.60
2018-12-30T15:10:35.499Z,4.60
2018-12-30T15:13:16.340Z,4.60
2018-12-30T15:15:56.765Z,4.60
2018-12-30T15:18:37.847Z,4.60
2018-12-30T15:21:18.688Z,4.60
2018-12-30T15:23:59.541Z,4.60
2018-12-30T15:26:39.992Z,4.60
2018-12-30T15:29:20.766Z,4.60
2018-12-30T15:32:01.729Z,4.60
2018-12-30T15:34:42.562Z,4.50
2018-12-30T15:37:47.752Z,4.50
2018-12-30T15:43:00.318Z,4.50
2018-12-30T15:45:41.040Z,4.50
2018-12-30T15:48:22.203Z,4.50
2018-12-30T15:51:03.208Z,4.50
2018-12-30T15:59:02.181Z,4.60
2018-12-30T16:01:43.047Z,4.40
2018-12-30T16:04:23.798Z,4.40
2018-12-30T16:07:04.816Z,4.30
2018-12-30T16:09:45.485Z,4.30
2018-12-30T16:12:26.351Z,4.30
2018-12-30T16:15:07.088Z,4.30
2018-12-30T16:17:48.300Z,4.30
2018-12-30T16:20:17.279Z,4.20
2018-12-30T16:22:46.308Z,4.30
2018-12-30T16:25:34.468Z,4.30
2018-12-30T16:28:22.645Z,4.30
2018-12-30T16:31:03.090Z,4.30
2018-12-30T16:33:43.931Z,4.20
2018-12-30T16:36:24.929Z,4.20
2018-12-30T16:39:05.482Z,4.10
2018-12-30T16:41:46.384Z,4.10
2018-12-30T16:44:27.122Z,4.00
2018-12-30T16:47:07.871Z,4.00
2018-12-30T16:49:48.617Z,4.00
2018-12-30T16:52:32.184Z,4.00
2018-12-30T16:55:12.770Z,4.00
2018-12-30T16:57:53.194Z,4.00
2018-12-30T17:00:33.836Z,4.00
2018-12-30T17:03:14.450Z,4.00
2018-12-30T17:05:54.926Z,4.10
2018-12-30T17:08:35.537Z,4.10
2018-12-30T17:11:16.161Z,4.00
2018-12-30T17:13:57.060Z,3.90
2018-12-30T17:16:38.116Z,3.90
2018-12-30T17:19:19.380Z,3.80
2018-12-30T17:22:00.356Z,3.80
2018-12-30T17:24:40.987Z,3.70
2018-12-30T17:27:21.881Z,3.60
2018-12-30T17:30:03.042Z,3.50
2018-12-30T17:32:43.977Z,3.50
2018-12-30T17:35:24.725Z,3.50
2018-12-30T17:38:05.474Z,3.40
2018-12-30T17:40:46.437Z,3.40
2018-12-30T17:43:27.029Z,3.30
2018-12-30T17:46:07.859Z,3.30
2018-12-30T17:48:48.844Z,3.30
2018-12-30T17:51:29.712Z,3.20
2018-12-30T17:54:15.186Z,3.20
2018-12-30T17:56:53.442Z,3.10
2018-12-30T17:59:34.305Z,3.10
2018-12-30T18:02:15.137Z,3.10
2018-12-30T18:04:56.193Z,3.20
2018-12-30T18:07:38.519Z,3.40
2018-12-30T18:10:19.262Z,3.40
2018-12-30T18:13:00.100Z,3.40
2018-12-30T18:15:40.896Z,3.40
2018-12-30T18:18:21.711Z,3.40
2018-12-30T18:21:02.765Z,3.30
2018-12-30T18:23:43.148Z,3.30
2018-12-30T18:26:26.103Z,3.30
2018-12-30T18:29:06.773Z,3.20
2018-12-30T18:31:48.045Z,3.20
2018-12-30T18:34:28.435Z,3.20
2018-12-30T18:37:09.088Z,3.20
2018-12-30T18:39:50.257Z,3.10
2018-12-30T18:42:19.174Z,3.10
2018-12-30T18:45:07.333Z,3.10
2018-12-30T18:47:55.414Z,3.20
2018-12-30T18:50:36.093Z,3.20
2018-12-30T18:53:16.728Z,3.20
2018-12-30T18:55:57.325Z,3.10
2018-12-30T18:58:38.107Z,3.10
2018-12-30T19:01:19.162Z,3.00
2018-12-30T19:04:00.220Z,3.00
2018-12-30T19:06:41.252Z,3.00
2018-12-30T19:09:22.311Z,3.00
2018-12-30T19:12:03.045Z,3.00
2018-12-30T19:14:43.877Z,3.00
2018-12-30T19:17:24.809Z,3.00
2018-12-30T19:20:05.812Z,3.10
2018-12-30T19:22:46.386Z,3.10
2018-12-30T19:25:30.983Z,3.10
2018-12-30T19:28:11.292Z,3.10
2018-12-30T19:30:52.258Z,3.10
2018-12-30T19:33:33.002Z,3.10
2018-12-30T19:36:13.776Z,3.10
2018-12-30T19:38:54.576Z,3.00
2018-12-30T19:41:35.449Z,2.90
2018-12-30T19:44:16.317Z,2.90
2018-12-30T19:46:57.281Z,2.80
2018-12-30T19:49:37.896Z,2.80
2018-12-30T19:52:18.774Z,2.70
2018-12-30T19:54:59.454Z,2.80
2018-12-30T19:57:40.118Z,2.80
2018-12-30T20:00:20.570Z,2.80
2018-12-30T20:03:01.166Z,2.70
2018-12-30T20:05:42.038Z,2.70
2018-12-30T20:08:22.857Z,2.80
2018-12-30T20:11:03.916Z,2.80
2018-12-30T20:13:45.188Z,2.80
2018-12-30T20:16:26.393Z,2.80
2018-12-30T20:19:07.100Z,2.80
2018-12-30T20:21:48.342Z,2.80
2018-12-30T20:24:29.091Z,2.90
2018-12-30T20:27:10.094Z,2.90
2018-12-30T20:29:50.839Z,2.90
2018-12-30T20:32:31.708Z,3.00
2018-12-30T20:35:12.852Z,3.00
2018-12-30T20:37:53.933Z,2.90
2018-12-30T20:40:34.493Z,2.90
2018-12-30T20:43:15.297Z,3.00
2018-12-30T20:45:55.964Z,3.00
2018-12-30T20:48:36.738Z,3.10
2018-12-30T20:51:17.130Z,3.00
2018-12-30T20:53:58.252Z,3.10
2018-12-30T20:56:39.057Z,3.00
2018-12-30T20:59:19.488Z,3.00
2018-12-30T21:01:59.896Z,3.00
2018-12-30T21:04:40.419Z,3.00
2018-12-30T21:07:20.977Z,3.00
2018-12-30T21:10:01.505Z,3.00
2018-12-30T21:12:42.069Z,3.00
2018-12-30T21:15:26.193Z,3.00
2018-12-30T21:18:08.284Z,3.00
2018-12-30T21:20:49.187Z,2.90
2018-12-30T21:23:29.950Z,2.80
2018-12-30T21:26:10.820Z,2.90
2018-12-30T21:28:51.361Z,2.90
2018-12-30T21:31:32.558Z,3.00
2018-12-30T21:34:13.353Z,3.00
2018-12-30T21:36:53.985Z,3.00
2018-12-30T21:39:34.816Z,3.00
2018-12-30T21:42:15.670Z,3.00
2018-12-30T21:44:56.632Z,2.90
2018-12-30T21:47:37.836Z,2.90
2018-12-30T21:50:18.628Z,3.00
2018-12-30T21:52:59.376Z,3.00
2018-12-30T21:55:40.436Z,3.00
2018-12-30T21:58:21.033Z,3.00
2018-12-30T22:01:01.855Z,3.00
2018-12-30T22:03:42.529Z,3.00
2018-12-30T22:06:23.240Z,3.10
2018-12-30T22:09:04.825Z,3.10
2018-12-30T22:11:45.944Z,3.00
2018-12-30T22:14:26.379Z,3.00
2018-12-30T22:17:07.208Z,3.00
2018-12-30T22:19:48.336Z,3.00
2018-12-30T22:22:29.694Z,3.00
2018-12-30T22:25:10.550Z,3.00
2018-12-30T22:27:51.220Z,2.90
2018-12-30T22:30:31.760Z,2.90
2018-12-30T22:33:15.076Z,3.00
2018-12-30T22:35:57.788Z,3.00
2018-12-30T22:41:16.186Z,2.90
2018-12-30T22:43:45.132Z,2.90
2018-12-30T22:46:33.211Z,2.90
2018-12-30T22:49:13.893Z,2.90
2018-12-30T22:51:54.905Z,2.90
2018-12-30T22:54:35.836Z,2.90
2018-12-30T22:57:16.926Z,2.90
2018-12-30T22:59:57.593Z,2.90
2018-12-30T23:02:38.293Z,2.90
2018-12-30T23:05:19.149Z,3.00
2018-12-30T23:07:59.820Z,3.00
2018-12-30T23:10:40.278Z,3.00
2018-12-30T23:13:21.336Z,3.00
2018-12-30T23:16:02.041Z,3.00
2018-12-30T23:18:43.120Z,3.00
2018-12-30T23:21:23.936Z,3.00
2018-12-30T23:24:04.824Z,3.00
2018-12-30T23:26:46.041Z,3.00
2018-12-30T23:29:27.298Z,3.00
2018-12-30T23:32:08.045Z,3.00
2018-12-30T23:34:49.084Z,3.10
2018-12-30T23:37:29.666Z,3.00
2018-12-30T23:40:10.329Z,3.00
2018-12-30T23:42:51.116Z,3.00
2018-12-30T23:45:31.795Z,3.10
2018-12-30T23:48:12.759Z,3.10
2018-12-30T23:50:54.370Z,3.10
2018-12-30T23:53:35.100Z,3.10
2018-12-30T23:56:16.004Z,3.20
2018-12-30T23:58:56.704Z,3.20
